sensor_id;sensor_type;location;lat;lon;timestamp;temperature;humidity
22364;DHT22;11349;53.412;-1.328;2023-04-03T00:00:11;3.40;99.90
22364;DHT22;11349;53.412;-1.328;2023-04-03T00:02:37;3.40;99.90
22364;DHT22;11349;53.412;-1.328;2023-04-03T00:05:03;3.40;99.90
22364;DHT22;11349;53.412;-1.328;2023-04-03T00:07:30;3.30;99.90
22364;DHT22;11349;53.412;-1.328;2023-04-03T00:09:55;3.30;99.90
22364;DHT22;11349;53.412;-1.328;2023-04-03T00:12:21;3.30;99.90
22364;DHT22;11349;53.412;-1.328;2023-04-03T00:14:47;3.30;99.90
22364;DHT22;11349;53.412;-1.328;2023-04-03T00:17:12;3.30;99.90
22364;DHT22;11349;53.412;-1.328;2023-04-03T00:19:38;3.30;99.90
22364;DHT22;11349;53.412;-1.328;2023-04-03T00:22:04;3.30;99.90
22364;DHT22;11349;53.412;-1.328;2023-04-03T00:24:29;3.20;99.90
22364;DHT22;11349;53.412;-1.328;2023-04-03T00:26:55;3.10;99.90
22364;DHT22;11349;53.412;-1.328;2023-04-03T00:29:21;3.00;99.90
22364;DHT22;11349;53.412;-1.328;2023-04-03T00:31:47;2.90;99.90
22364;DHT22;11349;53.412;-1.328;2023-04-03T00:34:12;2.90;99.90
22364;DHT22;11349;53.412;-1.328;2023-04-03T00:36:38;2.80;99.90
22364;DHT22;11349;53.412;-1.328;2023-04-03T00:39:04;2.90;99.90
22364;DHT22;11349;53.412;-1.328;2023-04-03T00:41:30;2.80;99.90
22364;DHT22;11349;53.412;-1.328;2023-04-03T00:43:55;2.70;99.90
22364;DHT22;11349;53.412;-1.328;2023-04-03T00:46:21;2.70;99.90
22364;DHT22;11349;53.412;-1.328;2023-04-03T00:48:48;2.60;99.90
22364;DHT22;11349;53.412;-1.328;2023-04-03T00:51:20;2.60;99.90
22364;DHT22;11349;53.412;-1.328;2023-04-03T00:53:52;2.60;99.90
22364;DHT22;11349;53.412;-1.328;2023-04-03T00:56:21;2.60;99.90
22364;DHT22;11349;53.412;-1.328;2023-04-03T00:58:53;2.50;99.90
22364;DHT22;11349;53.412;-1.328;2023-04-03T01:01:26;2.50;99.90
22364;DHT22;11349;53.412;-1.328;2023-04-03T01:03:52;2.50;99.90
22364;DHT22;11349;53.412;-1.328;2023-04-03T01:06:23;2.50;99.90
22364;DHT22;11349;53.412;-1.328;2023-04-03T01:08:51;2.40;99.90
22364;DHT22;11349;53.412;-1.328;2023-04-03T01:11:18;2.40;99.90
22364;DHT22;11349;53.412;-1.328;2023-04-03T01:13:44;2.40;99.90
22364;DHT22;11349;53.412;-1.328;2023-04-03T01:16:10;2.40;99.90
22364;DHT22;11349;53.412;-1.328;2023-04-03T01:18:37;2.30;99.90
22364;DHT22;11349;53.412;-1.328;2023-04-03T01:22:23;2.30;99.90
22364;DHT22;11349;53.412;-1.328;2023-04-03T01:24:33;2.30;99.90
22364;DHT22;11349;53.412;-1.328;2023-04-03T01:27:01;2.20;99.90
22364;DHT22;11349;53.412;-1.328;2023-04-03T01:29:28;2.30;99.90
22364;DHT22;11349;53.412;-1.328;2023-04-03T01:31:58;2.20;99.90
22364;DHT22;11349;53.412;-1.328;2023-04-03T01:34:25;2.20;99.90
22364;DHT22;11349;53.412;-1.328;2023-04-03T01:36:51;2.10;99.90
22364;DHT22;11349;53.412;-1.328;2023-04-03T01:39:18;2.10;99.90
22364;DHT22;11349;53.412;-1.328;2023-04-03T01:41:44;2.00;99.90
22364;DHT22;11349;53.412;-1.328;2023-04-03T01:44:10;2.00;99.90
22364;DHT22;11349;53.412;-1.328;2023-04-03T01:46:36;2.00;99.90
22364;DHT22;11349;53.412;-1.328;2023-04-03T01:49:03;1.90;99.90
22364;DHT22;11349;53.412;-1.328;2023-04-03T01:51:30;1.90;99.90
22364;DHT22;11349;53.412;-1.328;2023-04-03T01:53:55;1.90;99.90
22364;DHT22;11349;53.412;-1.328;2023-04-03T01:56:21;1.90;99.90
22364;DHT22;11349;53.412;-1.328;2023-04-03T01:58:47;1.90;99.90
22364;DHT22;11349;53.412;-1.328;2023-04-03T02:01:13;1.90;99.90
22364;DHT22;11349;53.412;-1.328;2023-04-03T02:03:39;1.90;99.90
22364;DHT22;11349;53.412;-1.328;2023-04-03T02:06:05;1.80;99.90
22364;DHT22;11349;53.412;-1.328;2023-04-03T02:08:31;1.80;99.90
22364;DHT22;11349;53.412;-1.328;2023-04-03T02:10:56;1.80;99.90
22364;DHT22;11349;53.412;-1.328;2023-04-03T02:13:22;1.80;99.90
22364;DHT22;11349;53.412;-1.328;2023-04-03T02:15:48;1.80;99.90
22364;DHT22;11349;53.412;-1.328;2023-04-03T02:18:14;1.70;99.90
22364;DHT22;11349;53.412;-1.328;2023-04-03T02:20:40;1.60;99.90
22364;DHT22;11349;53.412;-1.328;2023-04-03T02:23:06;1.60;99.90
22364;DHT22;11349;53.412;-1.328;2023-04-03T02:25:32;1.60;99.90
22364;DHT22;11349;53.412;-1.328;2023-04-03T02:27:58;1.60;99.90
22364;DHT22;11349;53.412;-1.328;2023-04-03T02:30:23;1.60;99.90
22364;DHT22;11349;53.412;-1.328;2023-04-03T02:32:49;1.50;99.90
22364;DHT22;11349;53.412;-1.328;2023-04-03T02:35:15;1.50;99.90
22364;DHT22;11349;53.412;-1.328;2023-04-03T02:37:41;1.50;99.90
22364;DHT22;11349;53.412;-1.328;2023-04-03T02:40:07;1.50;99.90
22364;DHT22;11349;53.412;-1.328;2023-04-03T02:42:33;1.40;99.90
22364;DHT22;11349;53.412;-1.328;2023-04-03T02:44:58;1.40;99.90
22364;DHT22;11349;53.412;-1.328;2023-04-03T02:47:27;1.40;99.90
22364;DHT22;11349;53.412;-1.328;2023-04-03T02:49:53;1.40;99.90
22364;DHT22;11349;53.412;-1.328;2023-04-03T02:52:19;1.40;99.90
22364;DHT22;11349;53.412;-1.328;2023-04-03T02:54:45;1.30;99.90
22364;DHT22;11349;53.412;-1.328;2023-04-03T02:57:11;1.30;99.90
22364;DHT22;11349;53.412;-1.328;2023-04-03T02:59:37;1.20;99.90
22364;DHT22;11349;53.412;-1.328;2023-04-03T03:02:06;1.30;99.90
22364;DHT22;11349;53.412;-1.328;2023-04-03T03:04:33;1.30;99.90
22364;DHT22;11349;53.412;-1.328;2023-04-03T03:06:58;1.20;99.90
22364;DHT22;11349;53.412;-1.328;2023-04-03T03:09:24;1.20;99.90
22364;DHT22;11349;53.412;-1.328;2023-04-03T03:11:51;1.30;99.90
22364;DHT22;11349;53.412;-1.328;2023-04-03T03:14:16;1.30;99.90
22364;DHT22;11349;53.412;-1.328;2023-04-03T03:16:42;1.30;99.90
22364;DHT22;11349;53.412;-1.328;2023-04-03T03:19:08;1.30;99.90
22364;DHT22;11349;53.412;-1.328;2023-04-03T03:21:34;1.30;99.90
22364;DHT22;11349;53.412;-1.328;2023-04-03T03:23:59;1.20;99.90
22364;DHT22;11349;53.412;-1.328;2023-04-03T03:26:25;1.20;99.90
22364;DHT22;11349;53.412;-1.328;2023-04-03T03:28:51;1.10;99.90
22364;DHT22;11349;53.412;-1.328;2023-04-03T03:31:17;1.10;99.90
22364;DHT22;11349;53.412;-1.328;2023-04-03T03:33:43;1.10;99.90
22364;DHT22;11349;53.412;-1.328;2023-04-03T03:36:09;1.10;99.90
22364;DHT22;11349;53.412;-1.328;2023-04-03T03:38:34;1.10;99.90
22364;DHT22;11349;53.412;-1.328;2023-04-03T03:41:00;1.00;99.90
22364;DHT22;11349;53.412;-1.328;2023-04-03T03:43:27;0.90;99.90
22364;DHT22;11349;53.412;-1.328;2023-04-03T03:45:53;0.90;99.90
22364;DHT22;11349;53.412;-1.328;2023-04-03T03:48:20;0.90;99.90
22364;DHT22;11349;53.412;-1.328;2023-04-03T03:50:46;0.90;99.90
22364;DHT22;11349;53.412;-1.328;2023-04-03T03:53:12;0.90;99.90
22364;DHT22;11349;53.412;-1.328;2023-04-03T03:55:38;0.80;99.90
22364;DHT22;11349;53.412;-1.328;2023-04-03T03:58:03;0.80;99.90
22364;DHT22;11349;53.412;-1.328;2023-04-03T04:00:29;0.80;99.90
22364;DHT22;11349;53.412;-1.328;2023-04-03T04:02:55;0.80;99.90
22364;DHT22;11349;53.412;-1.328;2023-04-03T04:05:22;0.70;99.90
22364;DHT22;11349;53.412;-1.328;2023-04-03T04:07:48;0.70;99.90
22364;DHT22;11349;53.412;-1.328;2023-04-03T04:10:13;0.70;99.90
22364;DHT22;11349;53.412;-1.328;2023-04-03T04:12:39;0.70;99.90
22364;DHT22;11349;53.412;-1.328;2023-04-03T04:15:06;0.70;99.90
22364;DHT22;11349;53.412;-1.328;2023-04-03T04:17:31;0.60;99.90
22364;DHT22;11349;53.412;-1.328;2023-04-03T04:19:57;0.60;99.90
22364;DHT22;11349;53.412;-1.328;2023-04-03T04:22:23;0.60;99.90
22364;DHT22;11349;53.412;-1.328;2023-04-03T04:24:49;0.60;99.90
22364;DHT22;11349;53.412;-1.328;2023-04-03T04:27:14;0.50;99.90
22364;DHT22;11349;53.412;-1.328;2023-04-03T04:29:41;0.50;99.90
22364;DHT22;11349;53.412;-1.328;2023-04-03T04:32:07;0.50;99.90
22364;DHT22;11349;53.412;-1.328;2023-04-03T04:34:34;0.50;99.90
22364;DHT22;11349;53.412;-1.328;2023-04-03T04:37:00;0.50;99.90
22364;DHT22;11349;53.412;-1.328;2023-04-03T04:39:25;0.40;99.90
22364;DHT22;11349;53.412;-1.328;2023-04-03T04:41:51;0.40;99.90
22364;DHT22;11349;53.412;-1.328;2023-04-03T04:44:17;0.40;99.90
22364;DHT22;11349;53.412;-1.328;2023-04-03T04:46:43;0.50;99.90
22364;DHT22;11349;53.412;-1.328;2023-04-03T04:49:09;0.40;99.90
22364;DHT22;11349;53.412;-1.328;2023-04-03T04:51:34;0.40;99.90
22364;DHT22;11349;53.412;-1.328;2023-04-03T04:54:00;0.40;99.90
22364;DHT22;11349;53.412;-1.328;2023-04-03T04:56:28;0.40;99.90
22364;DHT22;11349;53.412;-1.328;2023-04-03T04:58:54;0.30;99.90
22364;DHT22;11349;53.412;-1.328;2023-04-03T05:01:20;0.30;99.90
22364;DHT22;11349;53.412;-1.328;2023-04-03T05:03:45;0.30;99.90
22364;DHT22;11349;53.412;-1.328;2023-04-03T05:06:13;0.30;99.90
22364;DHT22;11349;53.412;-1.328;2023-04-03T05:08:38;0.30;99.90
22364;DHT22;11349;53.412;-1.328;2023-04-03T05:11:04;0.30;99.90
22364;DHT22;11349;53.412;-1.328;2023-04-03T05:13:30;0.20;99.90
22364;DHT22;11349;53.412;-1.328;2023-04-03T05:15:56;0.20;99.90
22364;DHT22;11349;53.412;-1.328;2023-04-03T05:18:22;0.20;99.90
22364;DHT22;11349;53.412;-1.328;2023-04-03T05:20:49;0.20;99.90
22364;DHT22;11349;53.412;-1.328;2023-04-03T05:23:16;0.20;99.90
22364;DHT22;11349;53.412;-1.328;2023-04-03T05:25:42;0.20;99.90
22364;DHT22;11349;53.412;-1.328;2023-04-03T05:28:09;0.20;99.90
22364;DHT22;11349;53.412;-1.328;2023-04-03T05:30:35;0.20;99.90
22364;DHT22;11349;53.412;-1.328;2023-04-03T05:33:01;0.20;99.90
22364;DHT22;11349;53.412;-1.328;2023-04-03T05:35:27;0.20;99.90
22364;DHT22;11349;53.412;-1.328;2023-04-03T05:37:52;0.20;99.90
22364;DHT22;11349;53.412;-1.328;2023-04-03T05:40:18;0.20;99.90
22364;DHT22;11349;53.412;-1.328;2023-04-03T05:42:44;0.20;99.90
22364;DHT22;11349;53.412;-1.328;2023-04-03T05:45:10;0.20;99.90
22364;DHT22;11349;53.412;-1.328;2023-04-03T05:47:36;0.20;99.90
22364;DHT22;11349;53.412;-1.328;2023-04-03T05:50:02;0.20;99.90
22364;DHT22;11349;53.412;-1.328;2023-04-03T05:52:36;0.20;99.90
22364;DHT22;11349;53.412;-1.328;2023-04-03T05:55:03;0.30;99.90
22364;DHT22;11349;53.412;-1.328;2023-04-03T05:57:29;0.30;99.90
22364;DHT22;11349;53.412;-1.328;2023-04-03T05:59:55;0.30;99.90
22364;DHT22;11349;53.412;-1.328;2023-04-03T06:02:23;0.40;99.90
22364;DHT22;11349;53.412;-1.328;2023-04-03T06:04:50;0.40;99.90
22364;DHT22;11349;53.412;-1.328;2023-04-03T06:07:19;0.50;99.90
22364;DHT22;11349;53.412;-1.328;2023-04-03T06:09:48;0.50;99.90
22364;DHT22;11349;53.412;-1.328;2023-04-03T06:12:15;0.50;99.90
22364;DHT22;11349;53.412;-1.328;2023-04-03T06:14:41;0.60;99.90
22364;DHT22;11349;53.412;-1.328;2023-04-03T06:17:07;0.60;99.90
22364;DHT22;11349;53.412;-1.328;2023-04-03T06:19:34;0.60;99.90
22364;DHT22;11349;53.412;-1.328;2023-04-03T06:22:00;0.60;99.90
22364;DHT22;11349;53.412;-1.328;2023-04-03T06:24:26;0.70;99.90
22364;DHT22;11349;53.412;-1.328;2023-04-03T06:26:53;0.80;99.90
22364;DHT22;11349;53.412;-1.328;2023-04-03T06:29:22;0.80;99.90
22364;DHT22;11349;53.412;-1.328;2023-04-03T06:31:48;0.90;99.90
22364;DHT22;11349;53.412;-1.328;2023-04-03T06:34:14;1.00;99.90
22364;DHT22;11349;53.412;-1.328;2023-04-03T06:36:40;1.10;99.90
22364;DHT22;11349;53.412;-1.328;2023-04-03T06:39:08;1.20;99.90
22364;DHT22;11349;53.412;-1.328;2023-04-03T06:41:33;1.30;99.90
22364;DHT22;11349;53.412;-1.328;2023-04-03T06:43:59;1.40;99.90
22364;DHT22;11349;53.412;-1.328;2023-04-03T06:46:26;1.60;99.90
22364;DHT22;11349;53.412;-1.328;2023-04-03T06:48:52;1.70;99.90
22364;DHT22;11349;53.412;-1.328;2023-04-03T06:51:20;1.70;99.90
22364;DHT22;11349;53.412;-1.328;2023-04-03T06:53:50;1.80;99.90
22364;DHT22;11349;53.412;-1.328;2023-04-03T06:56:17;2.10;99.90
22364;DHT22;11349;53.412;-1.328;2023-04-03T06:58:44;2.40;99.90
22364;DHT22;11349;53.412;-1.328;2023-04-03T07:01:11;2.60;99.90
22364;DHT22;11349;53.412;-1.328;2023-04-03T07:03:47;2.80;99.90
22364;DHT22;11349;53.412;-1.328;2023-04-03T07:06:17;3.00;99.90
22364;DHT22;11349;53.412;-1.328;2023-04-03T07:08:43;3.30;99.90
22364;DHT22;11349;53.412;-1.328;2023-04-03T07:11:10;3.40;99.90
22364;DHT22;11349;53.412;-1.328;2023-04-03T07:13:36;3.50;99.90
22364;DHT22;11349;53.412;-1.328;2023-04-03T07:16:03;3.70;99.90
22364;DHT22;11349;53.412;-1.328;2023-04-03T07:18:30;4.10;99.90
22364;DHT22;11349;53.412;-1.328;2023-04-03T07:20:57;4.30;99.90
22364;DHT22;11349;53.412;-1.328;2023-04-03T07:23:23;5.00;99.90
22364;DHT22;11349;53.412;-1.328;2023-04-03T07:25:50;5.70;99.90
22364;DHT22;11349;53.412;-1.328;2023-04-03T07:28:18;6.30;99.90
22364;DHT22;11349;53.412;-1.328;2023-04-03T07:30:45;6.40;99.90
22364;DHT22;11349;53.412;-1.328;2023-04-03T07:33:11;6.70;99.90
22364;DHT22;11349;53.412;-1.328;2023-04-03T07:35:39;7.00;99.90
22364;DHT22;11349;53.412;-1.328;2023-04-03T07:38:05;7.60;99.90
22364;DHT22;11349;53.412;-1.328;2023-04-03T07:40:31;7.90;99.90
22364;DHT22;11349;53.412;-1.328;2023-04-03T07:42:57;8.50;99.90
22364;DHT22;11349;53.412;-1.328;2023-04-03T07:45:24;8.60;99.90
22364;DHT22;11349;53.412;-1.328;2023-04-03T07:47:50;8.70;99.90
22364;DHT22;11349;53.412;-1.328;2023-04-03T07:50:16;9.50;99.90
22364;DHT22;11349;53.412;-1.328;2023-04-03T07:52:42;9.50;99.90
22364;DHT22;11349;53.412;-1.328;2023-04-03T07:55:08;9.70;99.90
22364;DHT22;11349;53.412;-1.328;2023-04-03T07:57:33;10.00;99.90
22364;DHT22;11349;53.412;-1.328;2023-04-03T07:59:59;10.50;99.90
22364;DHT22;11349;53.412;-1.328;2023-04-03T08:02:25;10.70;99.90
22364;DHT22;11349;53.412;-1.328;2023-04-03T08:04:52;11.20;99.90
22364;DHT22;11349;53.412;-1.328;2023-04-03T08:07:18;11.50;99.90
22364;DHT22;11349;53.412;-1.328;2023-04-03T08:09:43;11.80;99.90
22364;DHT22;11349;53.412;-1.328;2023-04-03T08:12:10;12.00;98.90
22364;DHT22;11349;53.412;-1.328;2023-04-03T08:14:37;12.30;99.90
22364;DHT22;11349;53.412;-1.328;2023-04-03T08:17:03;12.70;95.80
22364;DHT22;11349;53.412;-1.328;2023-04-03T08:19:31;12.80;94.70
22364;DHT22;11349;53.412;-1.328;2023-04-03T08:21:56;13.20;97.80
22364;DHT22;11349;53.412;-1.328;2023-04-03T08:24:24;13.60;99.90
22364;DHT22;11349;53.412;-1.328;2023-04-03T08:26:50;13.30;93.90
22364;DHT22;11349;53.412;-1.328;2023-04-03T08:29:16;13.50;92.90
22364;DHT22;11349;53.412;-1.328;2023-04-03T08:31:42;13.90;95.10
22364;DHT22;11349;53.412;-1.328;2023-04-03T08:34:08;14.30;97.80
22364;DHT22;11349;53.412;-1.328;2023-04-03T08:36:34;14.40;92.80
22364;DHT22;11349;53.412;-1.328;2023-04-03T08:39:00;14.30;94.50
22364;DHT22;11349;53.412;-1.328;2023-04-03T08:52:04;11.40;90.40
22364;DHT22;11349;53.412;-1.328;2023-04-03T08:54:37;11.50;90.50
22364;DHT22;11349;53.412;-1.328;2023-04-03T08:57:06;11.00;92.90
22364;DHT22;11349;53.412;-1.328;2023-04-03T08:59:37;10.80;93.90
22364;DHT22;11349;53.412;-1.328;2023-04-03T09:05:15;11.40;91.80
22364;DHT22;11349;53.412;-1.328;2023-04-03T09:10:28;11.90;91.60
22364;DHT22;11349;53.412;-1.328;2023-04-03T09:13:06;12.40;97.00
22364;DHT22;11349;53.412;-1.328;2023-04-03T09:15:33;12.50;99.20
22364;DHT22;11349;53.412;-1.328;2023-04-03T09:18:28;12.80;94.00
22364;DHT22;11349;53.412;-1.328;2023-04-03T09:21:31;10.80;93.00
22364;DHT22;11349;53.412;-1.328;2023-04-03T09:23:59;10.60;96.40
22364;DHT22;11349;53.412;-1.328;2023-04-03T09:26:30;10.10;97.70
22364;DHT22;11349;53.412;-1.328;2023-04-03T09:29:01;10.50;97.10
22364;DHT22;11349;53.412;-1.328;2023-04-03T09:31:35;10.00;98.60
22364;DHT22;11349;53.412;-1.328;2023-04-03T09:34:28;9.90;99.00
22364;DHT22;11349;53.412;-1.328;2023-04-03T09:36:58;9.20;99.90
22364;DHT22;11349;53.412;-1.328;2023-04-03T09:39:29;9.70;99.90
22364;DHT22;11349;53.412;-1.328;2023-04-03T09:44:25;9.30;99.90
22364;DHT22;11349;53.412;-1.328;2023-04-03T09:46:51;9.70;99.90
22364;DHT22;11349;53.412;-1.328;2023-04-03T09:49:17;10.10;99.90
22364;DHT22;11349;53.412;-1.328;2023-04-03T09:51:44;9.80;99.90
22364;DHT22;11349;53.412;-1.328;2023-04-03T09:54:35;9.80;99.90
22364;DHT22;11349;53.412;-1.328;2023-04-03T09:57:13;9.70;99.90
22364;DHT22;11349;53.412;-1.328;2023-04-03T09:59:46;9.10;99.90
22364;DHT22;11349;53.412;-1.328;2023-04-03T10:04:42;9.00;99.90
22364;DHT22;11349;53.412;-1.328;2023-04-03T10:07:32;9.00;99.90
22364;DHT22;11349;53.412;-1.328;2023-04-03T10:10:02;9.30;99.90
22364;DHT22;11349;53.412;-1.328;2023-04-03T10:12:29;10.00;99.90
22364;DHT22;11349;53.412;-1.328;2023-04-03T10:14:59;9.70;99.90
22364;DHT22;11349;53.412;-1.328;2023-04-03T10:20:34;9.50;99.90
22364;DHT22;11349;53.412;-1.328;2023-04-03T10:25:41;10.00;99.90
22364;DHT22;11349;53.412;-1.328;2023-04-03T10:36:36;9.80;99.90
22364;DHT22;11349;53.412;-1.328;2023-04-03T10:42:02;10.00;99.90
22364;DHT22;11349;53.412;-1.328;2023-04-03T10:47:27;9.70;99.90
22364;DHT22;11349;53.412;-1.328;2023-04-03T10:58:03;9.00;99.90
22364;DHT22;11349;53.412;-1.328;2023-04-03T11:00:42;8.80;99.90
22364;DHT22;11349;53.412;-1.328;2023-04-03T11:03:35;9.40;99.90
22364;DHT22;11349;53.412;-1.328;2023-04-03T11:06:05;9.70;99.90
22364;DHT22;11349;53.412;-1.328;2023-04-03T11:08:36;9.90;99.90
22364;DHT22;11349;53.412;-1.328;2023-04-03T11:11:29;9.70;99.90
22364;DHT22;11349;53.412;-1.328;2023-04-03T11:16:47;10.10;99.90
22364;DHT22;11349;53.412;-1.328;2023-04-03T11:19:36;10.30;99.90
22364;DHT22;11349;53.412;-1.328;2023-04-03T11:24:39;9.80;99.90
22364;DHT22;11349;53.412;-1.328;2023-04-03T11:27:15;10.20;99.90
22364;DHT22;11349;53.412;-1.328;2023-04-03T11:29:44;10.30;99.90
22364;DHT22;11349;53.412;-1.328;2023-04-03T11:35:11;11.30;99.90
22364;DHT22;11349;53.412;-1.328;2023-04-03T11:37:47;11.50;99.90
22364;DHT22;11349;53.412;-1.328;2023-04-03T11:42:51;11.60;99.90
22364;DHT22;11349;53.412;-1.328;2023-04-03T11:45:40;10.20;99.90
22364;DHT22;11349;53.412;-1.328;2023-04-03T11:50:47;10.80;99.90
22364;DHT22;11349;53.412;-1.328;2023-04-03T11:58:18;11.10;99.90
22364;DHT22;11349;53.412;-1.328;2023-04-03T12:27:09;11.10;98.50
22364;DHT22;11349;53.412;-1.328;2023-04-03T12:32:48;10.90;99.90
22364;DHT22;11349;53.412;-1.328;2023-04-03T12:40:46;10.70;99.90
22364;DHT22;11349;53.412;-1.328;2023-04-03T12:46:11;11.10;99.60
22364;DHT22;11349;53.412;-1.328;2023-04-03T12:48:55;10.90;98.60
22364;DHT22;11349;53.412;-1.328;2023-04-03T12:51:28;11.10;99.90
22364;DHT22;11349;53.412;-1.328;2023-04-03T12:54:02;11.40;99.60
22364;DHT22;11349;53.412;-1.328;2023-04-03T12:56:30;11.30;99.10
22364;DHT22;11349;53.412;-1.328;2023-04-03T12:59:18;11.70;96.90
22364;DHT22;11349;53.412;-1.328;2023-04-03T13:01:44;11.30;99.40
22364;DHT22;11349;53.412;-1.328;2023-04-03T13:04:18;11.30;99.60
22364;DHT22;11349;53.412;-1.328;2023-04-03T13:06:44;11.30;99.60
22364;DHT22;11349;53.412;-1.328;2023-04-03T13:09:21;11.20;98.50
22364;DHT22;11349;53.412;-1.328;2023-04-03T13:11:57;11.20;99.40
22364;DHT22;11349;53.412;-1.328;2023-04-03T13:14:25;11.10;96.80
22364;DHT22;11349;53.412;-1.328;2023-04-03T13:16:56;11.30;98.10
22364;DHT22;11349;53.412;-1.328;2023-04-03T13:19:26;11.30;98.40
22364;DHT22;11349;53.412;-1.328;2023-04-03T13:22:01;11.40;97.00
22364;DHT22;11349;53.412;-1.328;2023-04-03T13:24:29;11.20;96.90
22364;DHT22;11349;53.412;-1.328;2023-04-03T13:26:57;11.40;98.10
22364;DHT22;11349;53.412;-1.328;2023-04-03T13:29:28;11.40;99.10
22364;DHT22;11349;53.412;-1.328;2023-04-03T13:31:55;11.60;96.10
22364;DHT22;11349;53.412;-1.328;2023-04-03T13:34:23;11.60;98.40
22364;DHT22;11349;53.412;-1.328;2023-04-03T13:39:29;11.50;97.30
22364;DHT22;11349;53.412;-1.328;2023-04-03T13:41:58;11.50;98.50
22364;DHT22;11349;53.412;-1.328;2023-04-03T13:44:29;11.40;97.30
22364;DHT22;11349;53.412;-1.328;2023-04-03T13:47:14;11.20;99.60
22364;DHT22;11349;53.412;-1.328;2023-04-03T13:49:46;11.10;99.20
22364;DHT22;11349;53.412;-1.328;2023-04-03T13:52:32;11.10;99.90
22364;DHT22;11349;53.412;-1.328;2023-04-03T13:55:30;11.10;99.30
22364;DHT22;11349;53.412;-1.328;2023-04-03T14:00:52;12.00;98.10
22364;DHT22;11349;53.412;-1.328;2023-04-03T14:05:56;11.60;99.00
22364;DHT22;11349;53.412;-1.328;2023-04-03T14:08:22;11.60;95.90
22364;DHT22;11349;53.412;-1.328;2023-04-03T14:10:49;11.50;97.20
22364;DHT22;11349;53.412;-1.328;2023-04-03T14:13:16;11.70;99.90
22364;DHT22;11349;53.412;-1.328;2023-04-03T14:15:43;11.80;96.70
22364;DHT22;11349;53.412;-1.328;2023-04-03T14:18:14;12.30;96.70
22364;DHT22;11349;53.412;-1.328;2023-04-03T14:20:41;11.90;90.70
22364;DHT22;11349;53.412;-1.328;2023-04-03T14:23:07;12.10;93.20
22364;DHT22;11349;53.412;-1.328;2023-04-03T14:25:33;12.40;99.90
22364;DHT22;11349;53.412;-1.328;2023-04-03T14:27:59;12.90;97.60
22364;DHT22;11349;53.412;-1.328;2023-04-03T14:30:27;12.50;92.10
22364;DHT22;11349;53.412;-1.328;2023-04-03T14:32:53;12.30;90.50
22364;DHT22;11349;53.412;-1.328;2023-04-03T14:35:21;12.00;93.60
22364;DHT22;11349;53.412;-1.328;2023-04-03T14:37:47;11.90;94.00
22364;DHT22;11349;53.412;-1.328;2023-04-03T14:40:17;11.90;90.80
22364;DHT22;11349;53.412;-1.328;2023-04-03T14:42:43;12.20;96.80
22364;DHT22;11349;53.412;-1.328;2023-04-03T14:45:11;12.00;91.80
22364;DHT22;11349;53.412;-1.328;2023-04-03T14:48:02;11.90;92.30
22364;DHT22;11349;53.412;-1.328;2023-04-03T14:50:27;11.80;94.30
22364;DHT22;11349;53.412;-1.328;2023-04-03T14:52:56;12.00;93.60
22364;DHT22;11349;53.412;-1.328;2023-04-03T14:55:25;12.20;92.00
22364;DHT22;11349;53.412;-1.328;2023-04-03T14:57:51;12.00;92.00
22364;DHT22;11349;53.412;-1.328;2023-04-03T15:00:20;12.10;97.60
22364;DHT22;11349;53.412;-1.328;2023-04-03T15:02:46;12.20;92.20
22364;DHT22;11349;53.412;-1.328;2023-04-03T15:05:13;12.00;91.40
22364;DHT22;11349;53.412;-1.328;2023-04-03T15:07:47;12.00;93.00
22364;DHT22;11349;53.412;-1.328;2023-04-03T15:12:40;11.90;92.50
22364;DHT22;11349;53.412;-1.328;2023-04-03T15:15:06;12.00;96.50
22364;DHT22;11349;53.412;-1.328;2023-04-03T15:17:32;12.00;92.10
22364;DHT22;11349;53.412;-1.328;2023-04-03T15:19:59;12.00;93.10
22364;DHT22;11349;53.412;-1.328;2023-04-03T15:22:25;11.90;90.00
22364;DHT22;11349;53.412;-1.328;2023-04-03T15:24:50;11.70;91.20
22364;DHT22;11349;53.412;-1.328;2023-04-03T15:27:16;11.90;97.20
22364;DHT22;11349;53.412;-1.328;2023-04-03T15:29:43;12.10;92.60
22364;DHT22;11349;53.412;-1.328;2023-04-03T15:32:09;12.30;92.10
22364;DHT22;11349;53.412;-1.328;2023-04-03T15:34:35;12.00;91.60
22364;DHT22;11349;53.412;-1.328;2023-04-03T15:37:01;12.00;93.60
22364;DHT22;11349;53.412;-1.328;2023-04-03T15:39:27;12.20;95.80
22364;DHT22;11349;53.412;-1.328;2023-04-03T15:41:54;12.10;95.20
22364;DHT22;11349;53.412;-1.328;2023-04-03T15:44:20;11.80;93.50
22364;DHT22;11349;53.412;-1.328;2023-04-03T15:46:47;11.70;95.00
22364;DHT22;11349;53.412;-1.328;2023-04-03T15:49:14;11.70;92.20
22364;DHT22;11349;53.412;-1.328;2023-04-03T15:51:40;11.80;92.80
22364;DHT22;11349;53.412;-1.328;2023-04-03T15:54:06;12.80;91.90
22364;DHT22;11349;53.412;-1.328;2023-04-03T15:56:32;12.80;92.10
22364;DHT22;11349;53.412;-1.328;2023-04-03T15:58:57;12.40;91.30
22364;DHT22;11349;53.412;-1.328;2023-04-03T16:01:23;12.20;91.10
22364;DHT22;11349;53.412;-1.328;2023-04-03T16:03:49;11.90;92.30
22364;DHT22;11349;53.412;-1.328;2023-04-03T16:06:17;12.00;94.60
22364;DHT22;11349;53.412;-1.328;2023-04-03T16:08:44;11.90;96.80
22364;DHT22;11349;53.412;-1.328;2023-04-03T16:11:10;11.70;93.00
22364;DHT22;11349;53.412;-1.328;2023-04-03T16:13:36;11.70;96.00
22364;DHT22;11349;53.412;-1.328;2023-04-03T16:16:03;12.20;95.30
22364;DHT22;11349;53.412;-1.328;2023-04-03T16:18:29;11.70;93.70
22364;DHT22;11349;53.412;-1.328;2023-04-03T16:20:55;11.70;95.60
22364;DHT22;11349;53.412;-1.328;2023-04-03T16:23:21;11.70;95.50
22364;DHT22;11349;53.412;-1.328;2023-04-03T16:25:48;11.80;94.70
22364;DHT22;11349;53.412;-1.328;2023-04-03T16:28:16;11.70;95.20
22364;DHT22;11349;53.412;-1.328;2023-04-03T16:30:45;11.70;96.00
22364;DHT22;11349;53.412;-1.328;2023-04-03T16:33:12;11.60;95.10
22364;DHT22;11349;53.412;-1.328;2023-04-03T16:35:39;11.70;95.00
22364;DHT22;11349;53.412;-1.328;2023-04-03T16:38:07;11.80;94.00
22364;DHT22;11349;53.412;-1.328;2023-04-03T16:40:33;11.60;93.90
22364;DHT22;11349;53.412;-1.328;2023-04-03T16:43:00;12.00;96.30
22364;DHT22;11349;53.412;-1.328;2023-04-03T16:45:25;11.70;93.50
22364;DHT22;11349;53.412;-1.328;2023-04-03T16:47:51;11.50;94.70
22364;DHT22;11349;53.412;-1.328;2023-04-03T16:50:17;11.50;96.30
22364;DHT22;11349;53.412;-1.328;2023-04-03T16:52:43;11.80;96.30
22364;DHT22;11349;53.412;-1.328;2023-04-03T16:55:10;11.60;96.90
22364;DHT22;11349;53.412;-1.328;2023-04-03T16:57:36;12.00;99.40
22364;DHT22;11349;53.412;-1.328;2023-04-03T17:00:01;12.40;92.90
22364;DHT22;11349;53.412;-1.328;2023-04-03T17:02:27;11.60;94.30
22364;DHT22;11349;53.412;-1.328;2023-04-03T17:04:54;11.40;95.70
22364;DHT22;11349;53.412;-1.328;2023-04-03T17:07:22;11.50;95.90
22364;DHT22;11349;53.412;-1.328;2023-04-03T17:09:48;11.50;95.80
22364;DHT22;11349;53.412;-1.328;2023-04-03T17:12:15;11.90;99.90
22364;DHT22;11349;53.412;-1.328;2023-04-03T17:14:42;11.80;95.10
22364;DHT22;11349;53.412;-1.328;2023-04-03T17:17:08;11.60;95.60
22364;DHT22;11349;53.412;-1.328;2023-04-03T17:19:35;11.40;96.40
22364;DHT22;11349;53.412;-1.328;2023-04-03T17:22:02;11.50;96.10
22364;DHT22;11349;53.412;-1.328;2023-04-03T17:24:28;11.30;95.40
22364;DHT22;11349;53.412;-1.328;2023-04-03T17:26:53;11.40;96.70